sensor_id;sensor_type;location;lat;lon;timestamp;temperature;humidity
44487;DHT22;30191;50.908;6.962;2024-02-23T00:01:31;8.00;99.90
44487;DHT22;30191;50.908;6.962;2024-02-23T00:03:57;8.00;99.90
44487;DHT22;30191;50.908;6.962;2024-02-23T00:06:22;8.00;99.90
44487;DHT22;30191;50.908;6.962;2024-02-23T00:08:53;8.00;99.90
44487;DHT22;30191;50.908;6.962;2024-02-23T00:11:23;7.90;99.90
44487;DHT22;30191;50.908;6.962;2024-02-23T00:13:48;8.00;99.90
44487;DHT22;30191;50.908;6.962;2024-02-23T00:16:14;7.90;99.90
44487;DHT22;30191;50.908;6.962;2024-02-23T00:18:40;7.80;99.90
44487;DHT22;30191;50.908;6.962;2024-02-23T00:21:05;7.80;99.90
44487;DHT22;30191;50.908;6.962;2024-02-23T00:23:31;7.80;99.90
44487;DHT22;30191;50.908;6.962;2024-02-23T00:25:56;7.80;99.90
44487;DHT22;30191;50.908;6.962;2024-02-23T00:28:22;7.90;99.90
44487;DHT22;30191;50.908;6.962;2024-02-23T00:30:47;7.90;99.90
44487;DHT22;30191;50.908;6.962;2024-02-23T00:33:13;7.80;99.90
44487;DHT22;30191;50.908;6.962;2024-02-23T00:35:39;7.90;99.90
44487;DHT22;30191;50.908;6.962;2024-02-23T00:38:04;7.90;99.90
44487;DHT22;30191;50.908;6.962;2024-02-23T00:40:30;7.80;99.90
44487;DHT22;30191;50.908;6.962;2024-02-23T00:42:56;7.70;99.90
44487;DHT22;30191;50.908;6.962;2024-02-23T00:45:21;7.50;99.90
44487;DHT22;30191;50.908;6.962;2024-02-23T00:47:47;7.50;99.90
44487;DHT22;30191;50.908;6.962;2024-02-23T00:50:14;7.50;99.90
44487;DHT22;30191;50.908;6.962;2024-02-23T00:52:40;7.60;99.90
44487;DHT22;30191;50.908;6.962;2024-02-23T00:55:06;7.60;99.90
44487;DHT22;30191;50.908;6.962;2024-02-23T00:57:34;7.50;99.90
44487;DHT22;30191;50.908;6.962;2024-02-23T01:00:01;7.50;99.90
44487;DHT22;30191;50.908;6.962;2024-02-23T01:02:28;7.40;99.90
44487;DHT22;30191;50.908;6.962;2024-02-23T01:04:55;7.40;99.90
44487;DHT22;30191;50.908;6.962;2024-02-23T01:07:22;7.40;99.90
44487;DHT22;30191;50.908;6.962;2024-02-23T01:09:48;7.40;99.90
44487;DHT22;30191;50.908;6.962;2024-02-23T01:12:14;7.40;99.90
44487;DHT22;30191;50.908;6.962;2024-02-23T01:14:39;7.30;99.90
44487;DHT22;30191;50.908;6.962;2024-02-23T01:17:05;7.30;99.90
44487;DHT22;30191;50.908;6.962;2024-02-23T01:19:30;7.30;99.90
44487;DHT22;30191;50.908;6.962;2024-02-23T01:21:56;7.20;99.90
44487;DHT22;30191;50.908;6.962;2024-02-23T01:24:25;7.30;99.90
44487;DHT22;30191;50.908;6.962;2024-02-23T01:26:53;7.30;99.90
44487;DHT22;30191;50.908;6.962;2024-02-23T01:29:20;7.30;99.90
44487;DHT22;30191;50.908;6.962;2024-02-23T01:31:45;7.30;99.90
44487;DHT22;30191;50.908;6.962;2024-02-23T01:34:11;7.20;99.90
44487;DHT22;30191;50.908;6.962;2024-02-23T01:36:37;7.20;99.90
44487;DHT22;30191;50.908;6.962;2024-02-23T01:39:04;7.20;99.90
44487;DHT22;30191;50.908;6.962;2024-02-23T01:41:30;7.20;99.90
44487;DHT22;30191;50.908;6.962;2024-02-23T01:43:56;7.10;99.90
44487;DHT22;30191;50.908;6.962;2024-02-23T01:46:21;7.10;99.90
44487;DHT22;30191;50.908;6.962;2024-02-23T01:48:47;7.00;99.90
44487;DHT22;30191;50.908;6.962;2024-02-23T01:51:13;7.00;99.90
44487;DHT22;30191;50.908;6.962;2024-02-23T01:53:39;7.00;99.90
44487;DHT22;30191;50.908;6.962;2024-02-23T01:56:06;7.00;99.90
44487;DHT22;30191;50.908;6.962;2024-02-23T01:58:33;7.00;99.90
44487;DHT22;30191;50.908;6.962;2024-02-23T02:01:00;6.90;99.90
44487;DHT22;30191;50.908;6.962;2024-02-23T02:03:26;7.00;99.90
44487;DHT22;30191;50.908;6.962;2024-02-23T02:05:53;7.00;99.90
44487;DHT22;30191;50.908;6.962;2024-02-23T02:08:19;7.00;99.90
44487;DHT22;30191;50.908;6.962;2024-02-23T02:10:45;7.00;99.90
44487;DHT22;30191;50.908;6.962;2024-02-23T02:13:12;6.90;99.90
44487;DHT22;30191;50.908;6.962;2024-02-23T02:15:38;7.00;99.90
44487;DHT22;30191;50.908;6.962;2024-02-23T02:18:04;7.00;99.90
44487;DHT22;30191;50.908;6.962;2024-02-23T02:20:32;7.00;99.90
44487;DHT22;30191;50.908;6.962;2024-02-23T02:22:59;7.00;99.90
44487;DHT22;30191;50.908;6.962;2024-02-23T02:25:24;7.00;99.90
44487;DHT22;30191;50.908;6.962;2024-02-23T02:27:50;6.90;99.90
44487;DHT22;30191;50.908;6.962;2024-02-23T02:30:16;7.00;99.90
44487;DHT22;30191;50.908;6.962;2024-02-23T02:32:41;7.00;99.90
44487;DHT22;30191;50.908;6.962;2024-02-23T02:35:07;7.10;99.90
44487;DHT22;30191;50.908;6.962;2024-02-23T02:37:58;7.10;99.90
44487;DHT22;30191;50.908;6.962;2024-02-23T02:40:49;7.00;99.90
44487;DHT22;30191;50.908;6.962;2024-02-23T02:43:40;7.00;99.90
44487;DHT22;30191;50.908;6.962;2024-02-23T02:46:31;7.00;99.90
44487;DHT22;30191;50.908;6.962;2024-02-23T02:49:22;6.90;99.90
44487;DHT22;30191;50.908;6.962;2024-02-23T02:52:13;6.90;99.90
44487;DHT22;30191;50.908;6.962;2024-02-23T02:55:04;7.00;99.90
44487;DHT22;30191;50.908;6.962;2024-02-23T02:57:55;7.10;99.90
44487;DHT22;30191;50.908;6.962;2024-02-23T03:00:46;7.00;99.90
44487;DHT22;30191;50.908;6.962;2024-02-23T03:03:37;7.10;99.90
44487;DHT22;30191;50.908;6.962;2024-02-23T03:06:28;7.00;99.90
44487;DHT22;30191;50.908;6.962;2024-02-23T03:09:19;6.90;99.90
44487;DHT22;30191;50.908;6.962;2024-02-23T03:12:10;7.00;99.90
44487;DHT22;30191;50.908;6.962;2024-02-23T03:15:01;7.10;99.90
44487;DHT22;30191;50.908;6.962;2024-02-23T03:17:52;7.20;99.90
44487;DHT22;30191;50.908;6.962;2024-02-23T03:20:43;7.10;99.90
44487;DHT22;30191;50.908;6.962;2024-02-23T03:23:33;7.10;99.90
44487;DHT22;30191;50.908;6.962;2024-02-23T03:26:24;7.20;99.90
44487;DHT22;30191;50.908;6.962;2024-02-23T03:29:15;7.30;99.90
44487;DHT22;30191;50.908;6.962;2024-02-23T03:32:07;7.20;99.90
44487;DHT22;30191;50.908;6.962;2024-02-23T03:34:58;7.20;99.90
44487;DHT22;30191;50.908;6.962;2024-02-23T03:37:49;7.20;99.90
44487;DHT22;30191;50.908;6.962;2024-02-23T03:40:41;7.30;99.90
44487;DHT22;30191;50.908;6.962;2024-02-23T03:43:32;7.40;99.90
44487;DHT22;30191;50.908;6.962;2024-02-23T03:46:23;7.20;99.90
44487;DHT22;30191;50.908;6.962;2024-02-23T03:49:14;7.40;99.90
44487;DHT22;30191;50.908;6.962;2024-02-23T03:52:05;7.30;99.90
44487;DHT22;30191;50.908;6.962;2024-02-23T03:54:55;7.30;99.90
44487;DHT22;30191;50.908;6.962;2024-02-23T03:57:47;7.20;99.90
44487;DHT22;30191;50.908;6.962;2024-02-23T04:00:38;7.30;99.90
44487;DHT22;30191;50.908;6.962;2024-02-23T04:03:29;7.30;99.90
44487;DHT22;30191;50.908;6.962;2024-02-23T04:06:20;7.20;99.90
44487;DHT22;30191;50.908;6.962;2024-02-23T04:09:11;7.30;99.90
44487;DHT22;30191;50.908;6.962;2024-02-23T04:12:02;7.40;99.90
44487;DHT22;30191;50.908;6.962;2024-02-23T04:14:53;7.40;99.90
44487;DHT22;30191;50.908;6.962;2024-02-23T04:17:45;7.30;99.90
44487;DHT22;30191;50.908;6.962;2024-02-23T04:21:01;7.20;99.90
44487;DHT22;30191;50.908;6.962;2024-02-23T04:23:52;7.30;99.90
44487;DHT22;30191;50.908;6.962;2024-02-23T04:26:43;7.30;99.90
44487;DHT22;30191;50.908;6.962;2024-02-23T04:29:34;7.40;99.90
44487;DHT22;30191;50.908;6.962;2024-02-23T04:32:26;7.50;99.90
44487;DHT22;30191;50.908;6.962;2024-02-23T04:35:17;7.50;99.90
44487;DHT22;30191;50.908;6.962;2024-02-23T04:38:08;7.50;99.90
44487;DHT22;30191;50.908;6.962;2024-02-23T04:41:02;7.50;99.90
44487;DHT22;30191;50.908;6.962;2024-02-23T04:43:54;7.50;99.90
44487;DHT22;30191;50.908;6.962;2024-02-23T04:46:45;7.60;99.90
44487;DHT22;30191;50.908;6.962;2024-02-23T04:49:36;7.50;99.90
44487;DHT22;30191;50.908;6.962;2024-02-23T04:52:27;7.50;99.90
44487;DHT22;30191;50.908;6.962;2024-02-23T04:55:18;7.50;99.90
44487;DHT22;30191;50.908;6.962;2024-02-23T04:58:09;7.60;99.90
44487;DHT22;30191;50.908;6.962;2024-02-23T05:01:00;7.70;99.90
44487;DHT22;30191;50.908;6.962;2024-02-23T05:03:50;7.70;99.90
44487;DHT22;30191;50.908;6.962;2024-02-23T05:06:42;7.70;99.90
44487;DHT22;30191;50.908;6.962;2024-02-23T05:09:33;7.70;99.90
44487;DHT22;30191;50.908;6.962;2024-02-23T05:12:24;7.70;99.90
44487;DHT22;30191;50.908;6.962;2024-02-23T05:15:15;7.60;99.90
44487;DHT22;30191;50.908;6.962;2024-02-23T05:18:06;7.60;99.90
44487;DHT22;30191;50.908;6.962;2024-02-23T05:20:57;7.60;99.90
44487;DHT22;30191;50.908;6.962;2024-02-23T05:23:48;7.50;99.90
44487;DHT22;30191;50.908;6.962;2024-02-23T05:26:39;7.50;99.90
44487;DHT22;30191;50.908;6.962;2024-02-23T05:29:30;7.50;99.90
44487;DHT22;30191;50.908;6.962;2024-02-23T05:32:21;7.60;99.90
44487;DHT22;30191;50.908;6.962;2024-02-23T05:35:12;7.60;99.90
44487;DHT22;30191;50.908;6.962;2024-02-23T05:38:03;7.60;99.90
44487;DHT22;30191;50.908;6.962;2024-02-23T05:40:54;7.70;99.90
44487;DHT22;30191;50.908;6.962;2024-02-23T05:43:45;7.60;99.90
44487;DHT22;30191;50.908;6.962;2024-02-23T05:46:36;7.60;99.90
44487;DHT22;30191;50.908;6.962;2024-02-23T05:49:28;7.60;99.90
44487;DHT22;30191;50.908;6.962;2024-02-23T05:52:19;7.60;99.90
44487;DHT22;30191;50.908;6.962;2024-02-23T05:54:44;7.60;99.90
44487;DHT22;30191;50.908;6.962;2024-02-23T05:57:10;7.60;99.90
44487;DHT22;30191;50.908;6.962;2024-02-23T05:59:35;7.50;99.90
44487;DHT22;30191;50.908;6.962;2024-02-23T06:02:01;7.50;99.90
44487;DHT22;30191;50.908;6.962;2024-02-23T06:04:27;7.50;99.90
44487;DHT22;30191;50.908;6.962;2024-02-23T06:06:53;7.50;99.90
44487;DHT22;30191;50.908;6.962;2024-02-23T06:09:18;7.40;99.90
44487;DHT22;30191;50.908;6.962;2024-02-23T06:11:44;7.50;99.90
44487;DHT22;30191;50.908;6.962;2024-02-23T06:14:10;7.40;99.90
44487;DHT22;30191;50.908;6.962;2024-02-23T06:16:36;7.40;99.90
44487;DHT22;30191;50.908;6.962;2024-02-23T06:19:03;7.40;99.90
44487;DHT22;30191;50.908;6.962;2024-02-23T06:21:29;7.50;99.90
44487;DHT22;30191;50.908;6.962;2024-02-23T06:23:54;7.50;99.90
44487;DHT22;30191;50.908;6.962;2024-02-23T06:26:21;7.50;99.90
44487;DHT22;30191;50.908;6.962;2024-02-23T06:28:46;7.40;99.90
44487;DHT22;30191;50.908;6.962;2024-02-23T06:31:14;7.40;99.90
44487;DHT22;30191;50.908;6.962;2024-02-23T06:33:40;7.40;99.90
44487;DHT22;30191;50.908;6.962;2024-02-23T06:36:06;7.40;99.90
44487;DHT22;30191;50.908;6.962;2024-02-23T06:38:33;7.40;99.90
44487;DHT22;30191;50.908;6.962;2024-02-23T06:40:59;7.40;99.90
44487;DHT22;30191;50.908;6.962;2024-02-23T06:43:24;7.50;99.90
44487;DHT22;30191;50.908;6.962;2024-02-23T06:45:50;7.50;99.90
44487;DHT22;30191;50.908;6.962;2024-02-23T06:48:16;7.50;99.90
44487;DHT22;30191;50.908;6.962;2024-02-23T06:50:42;7.50;99.90
44487;DHT22;30191;50.908;6.962;2024-02-23T06:53:07;7.40;99.90
44487;DHT22;30191;50.908;6.962;2024-02-23T06:55:34;7.40;99.90
44487;DHT22;30191;50.908;6.962;2024-02-23T06:58:00;7.50;99.90
44487;DHT22;30191;50.908;6.962;2024-02-23T07:00:25;7.50;99.90
44487;DHT22;30191;50.908;6.962;2024-02-23T07:02:51;7.50;99.90
44487;DHT22;30191;50.908;6.962;2024-02-23T07:05:17;7.50;99.90
44487;DHT22;30191;50.908;6.962;2024-02-23T07:07:43;7.50;99.90
44487;DHT22;30191;50.908;6.962;2024-02-23T07:10:09;7.50;99.90
44487;DHT22;30191;50.908;6.962;2024-02-23T07:12:36;7.50;99.90
44487;DHT22;30191;50.908;6.962;2024-02-23T07:15:01;7.50;99.90
44487;DHT22;30191;50.908;6.962;2024-02-23T07:17:27;7.50;99.90
44487;DHT22;30191;50.908;6.962;2024-02-23T07:19:53;7.60;99.90
44487;DHT22;30191;50.908;6.962;2024-02-23T07:22:19;7.60;99.90
44487;DHT22;30191;50.908;6.962;2024-02-23T07:24:46;7.60;99.90
44487;DHT22;30191;50.908;6.962;2024-02-23T07:27:12;7.70;99.90
44487;DHT22;30191;50.908;6.962;2024-02-23T07:29:37;7.70;99.90
44487;DHT22;30191;50.908;6.962;2024-02-23T07:32:03;7.70;99.90
44487;DHT22;30191;50.908;6.962;2024-02-23T07:34:30;7.80;99.90
44487;DHT22;30191;50.908;6.962;2024-02-23T07:36:56;7.80;99.90
44487;DHT22;30191;50.908;6.962;2024-02-23T07:39:22;7.90;99.90
44487;DHT22;30191;50.908;6.962;2024-02-23T07:41:48;8.00;99.90
44487;DHT22;30191;50.908;6.962;2024-02-23T07:44:13;8.00;99.90
44487;DHT22;30191;50.908;6.962;2024-02-23T07:46:39;8.10;99.90
44487;DHT22;30191;50.908;6.962;2024-02-23T07:49:05;8.10;99.90
44487;DHT22;30191;50.908;6.962;2024-02-23T07:51:35;8.10;99.90
44487;DHT22;30191;50.908;6.962;2024-02-23T07:54:01;8.10;99.90
44487;DHT22;30191;50.908;6.962;2024-02-23T07:56:27;8.20;99.90
44487;DHT22;30191;50.908;6.962;2024-02-23T07:58:53;8.00;99.90
44487;DHT22;30191;50.908;6.962;2024-02-23T08:01:19;7.90;99.90
44487;DHT22;30191;50.908;6.962;2024-02-23T08:03:44;7.90;99.90
44487;DHT22;30191;50.908;6.962;2024-02-23T08:06:10;8.00;99.90
44487;DHT22;30191;50.908;6.962;2024-02-23T08:08:38;7.90;99.90
44487;DHT22;30191;50.908;6.962;2024-02-23T08:11:04;7.80;99.90
44487;DHT22;30191;50.908;6.962;2024-02-23T08:13:30;7.90;99.90
44487;DHT22;30191;50.908;6.962;2024-02-23T08:16:00;7.90;99.90
44487;DHT22;30191;50.908;6.962;2024-02-23T08:18:25;8.00;99.90
44487;DHT22;30191;50.908;6.962;2024-02-23T08:20:52;8.00;99.90
44487;DHT22;30191;50.908;6.962;2024-02-23T08:23:17;8.00;99.90
44487;DHT22;30191;50.908;6.962;2024-02-23T08:25:45;8.00;99.90
44487;DHT22;30191;50.908;6.962;2024-02-23T08:28:10;8.00;99.90
44487;DHT22;30191;50.908;6.962;2024-02-23T08:30:36;8.10;99.90
44487;DHT22;30191;50.908;6.962;2024-02-23T08:33:01;8.00;99.90
44487;DHT22;30191;50.908;6.962;2024-02-23T08:35:27;8.10;99.90
44487;DHT22;30191;50.908;6.962;2024-02-23T08:37:53;8.10;99.90
44487;DHT22;30191;50.908;6.962;2024-02-23T08:40:19;8.20;99.90
44487;DHT22;30191;50.908;6.962;2024-02-23T08:42:44;8.30;99.90
44487;DHT22;30191;50.908;6.962;2024-02-23T08:45:12;8.40;99.90
44487;DHT22;30191;50.908;6.962;2024-02-23T08:47:39;8.40;99.90
44487;DHT22;30191;50.908;6.962;2024-02-23T08:50:05;8.50;99.90
44487;DHT22;30191;50.908;6.962;2024-02-23T08:52:31;8.50;99.90
44487;DHT22;30191;50.908;6.962;2024-02-23T08:54:57;8.40;99.90
44487;DHT22;30191;50.908;6.962;2024-02-23T08:57:23;8.40;99.90
44487;DHT22;30191;50.908;6.962;2024-02-23T08:59:51;8.50;99.90
44487;DHT22;30191;50.908;6.962;2024-02-23T09:02:17;8.50;99.90
44487;DHT22;30191;50.908;6.962;2024-02-23T09:04:44;8.50;99.90
44487;DHT22;30191;50.908;6.962;2024-02-23T09:07:11;8.40;99.90
44487;DHT22;30191;50.908;6.962;2024-02-23T09:09:37;8.30;99.90
44487;DHT22;30191;50.908;6.962;2024-02-23T09:12:03;8.30;99.90
44487;DHT22;30191;50.908;6.962;2024-02-23T09:14:29;8.50;99.90
44487;DHT22;30191;50.908;6.962;2024-02-23T09:16:55;8.50;99.90
44487;DHT22;30191;50.908;6.962;2024-02-23T09:19:20;8.60;99.90
44487;DHT22;30191;50.908;6.962;2024-02-23T09:21:47;8.70;99.90
44487;DHT22;30191;50.908;6.962;2024-02-23T09:24:13;8.70;99.90
44487;DHT22;30191;50.908;6.962;2024-02-23T09:26:38;8.70;99.90
44487;DHT22;30191;50.908;6.962;2024-02-23T09:29:05;8.60;99.90
44487;DHT22;30191;50.908;6.962;2024-02-23T09:31:30;8.50;99.90
44487;DHT22;30191;50.908;6.962;2024-02-23T09:33:57;8.50;99.90
44487;DHT22;30191;50.908;6.962;2024-02-23T09:36:23;8.60;99.90
44487;DHT22;30191;50.908;6.962;2024-02-23T09:38:49;8.70;99.90
44487;DHT22;30191;50.908;6.962;2024-02-23T09:41:23;8.70;99.90
44487;DHT22;30191;50.908;6.962;2024-02-23T09:43:49;8.70;99.90
44487;DHT22;30191;50.908;6.962;2024-02-23T09:46:16;8.70;99.90
44487;DHT22;30191;50.908;6.962;2024-02-23T09:48:43;8.80;99.90
44487;DHT22;30191;50.908;6.962;2024-02-23T09:51:10;8.80;99.90
44487;DHT22;30191;50.908;6.962;2024-02-23T09:53:37;8.80;99.90
44487;DHT22;30191;50.908;6.962;2024-02-23T09:56:04;8.90;99.90
44487;DHT22;30191;50.908;6.962;2024-02-23T09:58:31;8.80;99.90
44487;DHT22;30191;50.908;6.962;2024-02-23T10:00:58;8.80;99.90
44487;DHT22;30191;50.908;6.962;2024-02-23T10:03:28;8.70;99.90
44487;DHT22;30191;50.908;6.962;2024-02-23T10:05:56;8.70;99.90
44487;DHT22;30191;50.908;6.962;2024-02-23T10:08:22;8.70;99.90
44487;DHT22;30191;50.908;6.962;2024-02-23T10:10:47;8.80;99.90
44487;DHT22;30191;50.908;6.962;2024-02-23T10:13:18;8.80;99.90
44487;DHT22;30191;50.908;6.962;2024-02-23T10:15:48;8.80;99.90
44487;DHT22;30191;50.908;6.962;2024-02-23T10:18:14;8.70;99.90
44487;DHT22;30191;50.908;6.962;2024-02-23T10:20:40;8.70;99.90
44487;DHT22;30191;50.908;6.962;2024-02-23T10:23:07;8.80;99.90
44487;DHT22;30191;50.908;6.962;2024-02-23T10:25:34;8.80;99.90
44487;DHT22;30191;50.908;6.962;2024-02-23T10:28:09;8.80;99.90
44487;DHT22;30191;50.908;6.962;2024-02-23T10:30:37;8.80;99.90
44487;DHT22;30191;50.908;6.962;2024-02-23T10:33:05;8.90;99.90
44487;DHT22;30191;50.908;6.962;2024-02-23T10:35:32;8.90;99.90
44487;DHT22;30191;50.908;6.962;2024-02-23T10:38:02;9.00;99.90
44487;DHT22;30191;50.908;6.962;2024-02-23T10:40:30;9.00;99.90
44487;DHT22;30191;50.908;6.962;2024-02-23T10:43:00;9.20;99.90
44487;DHT22;30191;50.908;6.962;2024-02-23T10:45:28;9.10;99.90
44487;DHT22;30191;50.908;6.962;2024-02-23T10:47:55;9.10;99.90
44487;DHT22;30191;50.908;6.962;2024-02-23T10:50:24;9.10;99.90
44487;DHT22;30191;50.908;6.962;2024-02-23T10:52:52;9.00;99.90
44487;DHT22;30191;50.908;6.962;2024-02-23T10:55:18;9.00;99.90
44487;DHT22;30191;50.908;6.962;2024-02-23T10:57:44;9.00;99.90
44487;DHT22;30191;50.908;6.962;2024-02-23T11:00:11;9.00;99.90
44487;DHT22;30191;50.908;6.962;2024-02-23T11:02:44;9.10;99.90
44487;DHT22;30191;50.908;6.962;2024-02-23T11:05:11;9.00;99.90
44487;DHT22;30191;50.908;6.962;2024-02-23T11:07:39;9.10;99.90
44487;DHT22;30191;50.908;6.962;2024-02-23T11:10:08;9.10;99.90
44487;DHT22;30191;50.908;6.962;2024-02-23T11:12:36;9.20;99.90
44487;DHT22;30191;50.908;6.962;2024-02-23T11:15:02;9.30;99.90
44487;DHT22;30191;50.908;6.962;2024-02-23T11:17:30;9.30;99.90
44487;DHT22;30191;50.908;6.962;2024-02-23T11:19:57;9.30;99.90
44487;DHT22;30191;50.908;6.962;2024-02-23T11:22:26;9.40;99.90
44487;DHT22;30191;50.908;6.962;2024-02-23T11:24:53;9.40;99.90
44487;DHT22;30191;50.908;6.962;2024-02-23T11:27:18;9.40;99.90
44487;DHT22;30191;50.908;6.962;2024-02-23T11:29:46;9.50;99.90
44487;DHT22;30191;50.908;6.962;2024-02-23T11:32:16;9.40;99.90
44487;DHT22;30191;50.908;6.962;2024-02-23T11:34:57;9.40;99.90
44487;DHT22;30191;50.908;6.962;2024-02-23T11:37:22;9.50;99.90
44487;DHT22;30191;50.908;6.962;2024-02-23T11:39:48;9.50;99.90
44487;DHT22;30191;50.908;6.962;2024-02-23T11:42:14;9.40;99.90
44487;DHT22;30191;50.908;6.962;2024-02-23T11:44:40;9.40;99.90
44487;DHT22;30191;50.908;6.962;2024-02-23T11:47:07;9.50;99.90
44487;DHT22;30191;50.908;6.962;2024-02-23T11:49:33;9.60;99.90
44487;DHT22;30191;50.908;6.962;2024-02-23T11:51:59;9.60;99.90
44487;DHT22;30191;50.908;6.962;2024-02-23T11:54:25;9.70;99.90
44487;DHT22;30191;50.908;6.962;2024-02-23T11:56:51;9.70;99.90
44487;DHT22;30191;50.908;6.962;2024-02-23T11:59:19;9.80;99.90
44487;DHT22;30191;50.908;6.962;2024-02-23T12:01:46;9.80;99.90
44487;DHT22;30191;50.908;6.962;2024-02-23T12:04:15;9.70;99.90
44487;DHT22;30191;50.908;6.962;2024-02-23T12:06:42;9.70;99.90
44487;DHT22;30191;50.908;6.962;2024-02-23T12:09:08;9.80;99.90
44487;DHT22;30191;50.908;6.962;2024-02-23T12:11:34;9.90;99.90
44487;DHT22;30191;50.908;6.962;2024-02-23T12:14:00;9.80;99.90
44487;DHT22;30191;50.908;6.962;2024-02-23T12:16:28;9.80;99.90
44487;DHT22;30191;50.908;6.962;2024-02-23T12:18:54;9.70;99.90
44487;DHT22;30191;50.908;6.962;2024-02-23T12:21:20;9.60;99.90
44487;DHT22;30191;50.908;6.962;2024-02-23T12:23:48;9.60;99.90
44487;DHT22;30191;50.908;6.962;2024-02-23T12:26:16;9.70;99.90
44487;DHT22;30191;50.908;6.962;2024-02-23T12:28:42;9.70;99.90
44487;DHT22;30191;50.908;6.962;2024-02-23T12:31:08;9.80;99.90
44487;DHT22;30191;50.908;6.962;2024-02-23T12:33:35;9.80;99.90
44487;DHT22;30191;50.908;6.962;2024-02-23T12:36:02;9.90;99.90
44487;DHT22;30191;50.908;6.962;2024-02-23T12:38:28;9.90;99.90
44487;DHT22;30191;50.908;6.962;2024-02-23T12:40:54;10.00;99.90
44487;DHT22;30191;50.908;6.962;2024-02-23T12:43:20;10.10;99.90
44487;DHT22;30191;50.908;6.962;2024-02-23T12:45:47;10.20;99.90
44487;DHT22;30191;50.908;6.962;2024-02-23T12:48:17;10.20;99.90
44487;DHT22;30191;50.908;6.962;2024-02-23T12:50:43;10.30;99.90
44487;DHT22;30191;50.908;6.962;2024-02-23T12:53:11;10.30;99.90
44487;DHT22;30191;50.908;6.962;2024-02-23T12:55:44;10.40;99.90
44487;DHT22;30191;50.908;6.962;2024-02-23T12:58:10;10.40;99.90
44487;DHT22;30191;50.908;6.962;2024-02-23T13:00:35;10.40;99.90
44487;DHT22;30191;50.908;6.962;2024-02-23T13:03:01;10.40;99.90
44487;DHT22;30191;50.908;6.962;2024-02-23T13:05:26;10.40;99.90
44487;DHT22;30191;50.908;6.962;2024-02-23T13:07:52;10.40;99.90
44487;DHT22;30191;50.908;6.962;2024-02-23T13:10:18;10.30;99.90
44487;DHT22;30191;50.908;6.962;2024-02-23T13:12:43;10.30;99.90
44487;DHT22;30191;50.908;6.962;2024-02-23T13:15:09;10.20;99.90
44487;DHT22;30191;50.908;6.962;2024-02-23T13:17:35;10.20;99.90
44487;DHT22;30191;50.908;6.962;2024-02-23T13:20:00;10.10;99.90
44487;DHT22;30191;50.908;6.962;2024-02-23T13:22:26;10.20;99.90
44487;DHT22;30191;50.908;6.962;2024-02-23T13:24:51;10.20;99.90
44487;DHT22;30191;50.908;6.962;2024-02-23T13:27:17;10.10;99.90
44487;DHT22;30191;50.908;6.962;2024-02-23T13:29:43;10.30;99.90
44487;DHT22;30191;50.908;6.962;2024-02-23T13:32:08;10.50;99.90
44487;DHT22;30191;50.908;6.962;2024-02-23T13:34:34;10.90;99.90
44487;DHT22;30191;50.908;6.962;2024-02-23T13:36:59;11.50;99.90
44487;DHT22;30191;50.908;6.962;2024-02-23T13:39:25;11.90;99.90
44487;DHT22;30191;50.908;6.962;2024-02-23T13:41:51;12.20;99.90
44487;DHT22;30191;50.908;6.962;2024-02-23T13:44:16;12.00;99.90
44487;DHT22;30191;50.908;6.962;2024-02-23T13:46:42;11.80;99.90
44487;DHT22;30191;50.908;6.962;2024-02-23T13:49:08;11.60;99.90
44487;DHT22;30191;50.908;6.962;2024-02-23T13:51:34;11.40;99.90
44487;DHT22;30191;50.908;6.962;2024-02-23T13:54:00;11.30;99.90
44487;DHT22;30191;50.908;6.962;2024-02-23T13:56:26;11.10;99.90
44487;DHT22;30191;50.908;6.962;2024-02-23T13:58:52;11.30;99.90
44487;DHT22;30191;50.908;6.962;2024-02-23T14:01:17;12.20;99.90
44487;DHT22;30191;50.908;6.962;2024-02-23T14:03:43;13.30;99.90
44487;DHT22;30191;50.908;6.962;2024-02-23T14:06:09;13.50;99.90
44487;DHT22;30191;50.908;6.962;2024-02-23T14:08:35;14.40;99.90
44487;DHT22;30191;50.908;6.962;2024-02-23T14:11:02;14.80;98.70
44487;DHT22;30191;50.908;6.962;2024-02-23T14:13:31;15.60;98.40
44487;DHT22;30191;50.908;6.962;2024-02-23T14:15:57;15.40;97.10
44487;DHT22;30191;50.908;6.962;2024-02-23T14:18:23;15.00;97.90
44487;DHT22;30191;50.908;6.962;2024-02-23T14:20:49;15.10;97.80
44487;DHT22;30191;50.908;6.962;2024-02-23T14:23:14;15.40;97.00
44487;DHT22;30191;50.908;6.962;2024-02-23T14:25:40;14.50;97.30
44487;DHT22;30191;50.908;6.962;2024-02-23T14:28:06;13.70;98.50
44487;DHT22;30191;50.908;6.962;2024-02-23T14:30:31;13.40;99.50
44487;DHT22;30191;50.908;6.962;2024-02-23T14:32:57;13.50;99.90
44487;DHT22;30191;50.908;6.962;2024-02-23T14:35:22;13.40;99.70
44487;DHT22;30191;50.908;6.962;2024-02-23T14:37:48;12.90;99.90
44487;DHT22;30191;50.908;6.962;2024-02-23T14:40:14;12.60;99.90
44487;DHT22;30191;50.908;6.962;2024-02-23T14:42:40;12.20;99.90
44487;DHT22;30191;50.908;6.962;2024-02-23T14:45:07;11.90;99.90
44487;DHT22;30191;50.908;6.962;2024-02-23T14:47:32;11.70;99.90
44487;DHT22;30191;50.908;6.962;2024-02-23T14:49:59;11.40;99.90
44487;DHT22;30191;50.908;6.962;2024-02-23T14:52:25;11.30;99.90
44487;DHT22;30191;50.908;6.962;2024-02-23T14:54:51;11.20;99.90
44487;DHT22;30191;50.908;6.962;2024-02-23T14:57:16;11.10;99.90
44487;DHT22;30191;50.908;6.962;2024-02-23T14:59:43;11.10;99.90
44487;DHT22;30191;50.908;6.962;2024-02-23T15:02:19;11.00;99.90
44487;DHT22;30191;50.908;6.962;2024-02-23T15:04:45;11.00;99.90
44487;DHT22;30191;50.908;6.962;2024-02-23T15:07:11;11.00;99.90
44487;DHT22;30191;50.908;6.962;2024-02-23T15:09:36;11.00;99.90
44487;DHT22;30191;50.908;6.962;2024-02-23T15:12:02;10.90;99.90
44487;DHT22;30191;50.908;6.962;2024-02-23T15:14:28;10.90;99.90
44487;DHT22;30191;50.908;6.962;2024-02-23T15:16:53;10.90;99.90
44487;DHT22;30191;50.908;6.962;2024-02-23T15:19:19;11.00;99.90
44487;DHT22;30191;50.908;6.962;2024-02-23T15:21:44;10.90;99.90
44487;DHT22;30191;50.908;6.962;2024-02-23T15:24:10;10.90;99.90
44487;DHT22;30191;50.908;6.962;2024-02-23T15:26:36;10.90;99.90
44487;DHT22;30191;50.908;6.962;2024-02-23T15:29:01;10.70;99.90
44487;DHT22;30191;50.908;6.962;2024-02-23T15:31:29;10.80;99.90
44487;DHT22;30191;50.908;6.962;2024-02-23T15:33:54;10.80;99.90
44487;DHT22;30191;50.908;6.962;2024-02-23T15:36:22;10.90;99.90
44487;DHT22;30191;50.908;6.962;2024-02-23T15:38:48;11.00;99.90
44487;DHT22;30191;50.908;6.962;2024-02-23T15:41:13;11.10;99.90
44487;DHT22;30191;50.908;6.962;2024-02-23T15:43:39;11.30;99.90
44487;DHT22;30191;50.908;6.962;2024-02-23T15:46:05;11.30;99.90
44487;DHT22;30191;50.908;6.962;2024-02-23T15:48:30;11.30;99.90
44487;DHT22;30191;50.908;6.962;2024-02-23T15:50:56;11.30;99.90
44487;DHT22;30191;50.908;6.962;2024-02-23T15:53:22;11.30;99.90
44487;DHT22;30191;50.908;6.962;2024-02-23T15:55:48;11.20;99.90
44487;DHT22;30191;50.908;6.962;2024-02-23T15:58:14;11.20;99.90
44487;DHT22;30191;50.908;6.962;2024-02-23T16:00:45;11.10;99.90
44487;DHT22;30191;50.908;6.962;2024-02-23T16:03:11;11.10;99.90
44487;DHT22;30191;50.908;6.962;2024-02-23T16:05:36;11.10;99.90